Time;durP1;ratioP1;P1;durP2;ratioP2;P2;SDS_P1;SDS_P2;PMS_P1;PMS_P2;Temp;Humidity;BMP_temperature;BMP_pressure;BME280_temperature;BME280_humidity;BME280_pressure;Samples;Min_cycle;Max_cycle;Signal;HPM_P1;HPM_P2
2022/08/10 00:02:21;;;;;;;3.00;0.63;;;10.40;99.90;;;;;;5013020;28;20160;-77
2022/08/10 00:04:49;;;;;;;1.58;0.65;;;10.50;99.90;;;;;;5012725;28;20065;-79
2022/08/10 00:07:17;;;;;;;1.50;0.60;;;10.60;99.90;;;;;;5011973;28;20037;-77
2022/08/10 00:09:44;;;;;;;1.48;0.60;;;10.60;99.90;;;;;;5012863;28;20022;-78
2022/08/10 00:12:12;;;;;;;4.78;0.70;;;10.60;99.90;;;;;;5012633;28;20128;-78
2022/08/10 00:14:40;;;;;;;7.03;1.08;;;10.70;99.90;;;;;;5014357;28;20037;-79
2022/08/10 00:17:08;;;;;;;3.47;0.80;;;10.80;99.90;;;;;;5016839;28;20030;-78
2022/08/10 00:19:35;;;;;;;3.60;1.00;;;10.90;99.90;;;;;;5016384;28;20531;-78
2022/08/10 00:22:03;;;;;;;2.35;0.70;;;11.00;99.90;;;;;;5016428;28;20026;-79
2022/08/10 00:24:31;;;;;;;10.18;1.13;;;11.00;99.90;;;;;;5016761;28;20021;-81
2022/08/10 00:26:58;;;;;;;4.47;1.15;;;11.00;99.90;;;;;;5015877;28;20026;-80
2022/08/10 00:29:26;;;;;;;4.57;1.67;;;11.20;99.90;;;;;;5015948;28;20014;-80
2022/08/10 00:31:54;;;;;;;1.63;0.73;;;11.30;99.90;;;;;;5015686;28;20022;-79
2022/08/10 00:34:21;;;;;;;2.25;0.60;;;11.50;99.90;;;;;;5014663;28;20026;-80
2022/08/10 00:36:50;;;;;;;3.25;0.80;;;11.60;99.90;;;;;;5016440;28;20526;-81
2022/08/10 00:39:18;;;;;;;1.17;0.80;;;11.60;99.90;;;;;;5016002;28;20025;-80
2022/08/10 00:41:46;;;;;;;1.08;0.57;;;11.70;99.90;;;;;;5016323;28;20549;-80
2022/08/10 00:44:13;;;;;;;2.58;1.00;;;11.80;99.90;;;;;;5015838;28;20030;-80
2022/08/10 00:46:41;;;;;;;4.70;1.10;;;11.90;99.90;;;;;;5016272;28;20443;-80
2022/08/10 00:49:09;;;;;;;2.42;1.00;;;11.90;99.90;;;;;;5016150;28;20033;-80
2022/08/10 00:51:38;;;;;;;5.32;1.02;;;12.00;99.90;;;;;;5015489;28;20022;-82
2022/08/10 00:54:06;;;;;;;3.63;1.25;;;12.00;99.90;;;;;;5014048;28;20033;-80
2022/08/10 00:56:34;;;;;;;2.70;0.90;;;12.00;99.90;;;;;;5014052;28;20033;-81
2022/08/10 00:59:02;;;;;;;2.63;0.95;;;12.00;99.90;;;;;;5014088;28;20022;-80
2022/08/10 01:01:30;;;;;;;2.97;1.48;;;12.00;99.90;;;;;;5014213;28;20164;-80
2022/08/10 01:03:57;;;;;;;3.22;1.42;;;12.10;99.90;;;;;;5014042;28;20018;-81
2022/08/10 01:06:43;;;;;;;8.25;1.27;;;12.10;99.90;;;;;;5014225;28;20037;-80
2022/08/10 01:09:26;;;;;;;2.92;0.80;;;12.20;99.90;;;;;;5014321;28;20022;-80
2022/08/10 01:12:04;;;;;;;3.67;1.30;;;12.30;99.90;;;;;;5015611;28;20132;-80
2022/08/10 01:14:48;;;;;;;3.35;0.95;;;12.30;99.90;;;;;;5015961;28;20157;-81
2022/08/10 01:17:37;;;;;;;5.63;0.65;;;12.30;99.90;;;;;;5016279;28;20026;-80
2022/08/10 01:20:07;;;;;;;5.13;0.70;;;12.40;99.90;;;;;;5015860;28;20022;-81
2022/08/10 01:23:10;;;;;;;2.28;0.70;;;12.60;99.90;;;;;;5016287;28;20109;-80
2022/08/10 01:26:30;;;;;;;5.75;0.70;;;12.70;99.90;;;;;;5014963;28;20034;-79
2022/08/10 01:29:07;;;;;;;1.83;0.70;;;12.80;99.90;;;;;;4982675;28;20049;-81
2022/08/10 01:31:42;;;;;;;4.47;0.98;;;12.80;99.90;;;;;;5015726;28;20109;-79
2022/08/10 01:34:19;;;;;;;6.20;1.23;;;12.80;99.90;;;;;;5016328;28;20022;-80
2022/08/10 01:36:55;;;;;;;3.13;0.80;;;12.60;99.90;;;;;;5016827;28;20029;-79
2022/08/10 01:39:32;;;;;;;5.30;1.00;;;12.60;99.90;;;;;;5015654;28;20054;-79
2022/08/10 01:42:02;;;;;;;3.58;1.20;;;12.50;99.90;;;;;;5015484;28;20041;-79
2022/08/10 01:45:00;;;;;;;6.22;1.15;;;12.50;99.90;;;;;;5015359;28;20415;-80
2022/08/10 01:50:47;;;;;;;2.40;1.17;;;12.60;99.90;;;;;;5008359;28;20028;-79
2022/08/10 01:53:22;;;;;;;1.85;0.77;;;12.70;99.90;;;;;;4997608;28;20037;-79
2022/08/10 01:55:53;;;;;;;4.75;0.90;;;12.80;99.90;;;;;;5015340;28;20060;-79
2022/08/10 01:58:22;;;;;;;2.75;0.77;;;12.80;99.90;;;;;;5015622;28;20064;-79
2022/08/10 02:00:52;;;;;;;3.30;1.17;;;12.90;99.90;;;;;;5015023;28;20029;-79
2022/08/10 02:03:22;;;;;;;7.68;1.15;;;12.90;99.90;;;;;;5015100;28;20080;-80
2022/08/10 02:05:53;;;;;;;4.88;0.73;;;13.00;99.90;;;;;;5015171;28;20475;-80
2022/08/10 02:08:23;;;;;;;4.63;1.20;;;13.00;99.90;;;;;;5015138;28;20471;-80
2022/08/10 02:10:53;;;;;;;3.78;0.80;;;13.10;99.90;;;;;;5014658;28;20065;-79
2022/08/10 02:13:23;;;;;;;3.05;1.02;;;13.20;99.90;;;;;;5014614;28;20483;-79
2022/08/10 02:15:52;;;;;;;3.80;0.90;;;13.10;99.90;;;;;;5014547;28;20029;-79
2022/08/10 02:18:22;;;;;;;4.25;1.10;;;13.10;99.90;;;;;;5014476;28;20100;-79
2022/08/10 02:20:52;;;;;;;7.53;0.85;;;13.10;99.90;;;;;;5010817;28;20380;-78
2022/08/10 02:23:28;;;;;;;4.60;0.63;;;13.10;99.90;;;;;;5013385;28;20487;-78
2022/08/10 02:25:57;;;;;;;1.05;0.60;;;13.00;99.90;;;;;;5012984;28;20034;-79
2022/08/10 02:28:28;;;;;;;4.05;1.30;;;13.00;99.90;;;;;;5012820;28;20434;-78
2022/08/10 02:31:17;;;;;;;2.22;0.85;;;13.10;99.90;;;;;;5012882;28;20018;-79
2022/08/10 02:33:48;;;;;;;5.30;0.80;;;13.20;99.90;;;;;;5012925;28;20084;-78
2022/08/10 02:36:18;;;;;;;4.68;0.60;;;13.30;99.90;;;;;;5012784;28;20421;-80
2022/08/10 02:38:55;;;;;;;5.30;1.25;;;13.40;99.90;;;;;;5012672;28;20529;-79
2022/08/10 02:41:54;;;;;;;2.35;0.65;;;13.50;99.90;;;;;;5012639;28;20022;-80
2022/08/10 02:44:32;;;;;;;5.38;1.23;;;13.60;99.90;;;;;;5012331;28;20022;-77
2022/08/10 02:47:07;;;;;;;2.40;0.80;;;13.50;99.90;;;;;;4993590;28;20408;-78
2022/08/10 02:49:58;;;;;;;1.70;0.50;;;13.40;99.90;;;;;;5011216;28;20487;-77
2022/08/10 02:52:40;;;;;;;2.78;0.50;;;13.40;99.90;;;;;;4993779;28;20034;-78
2022/08/10 02:55:47;;;;;;;4.22;0.82;;;13.30;99.90;;;;;;5012778;28;20025;-78
2022/08/10 02:58:45;;;;;;;3.72;0.52;;;13.20;99.90;;;;;;5013067;28;20040;-77
2022/08/10 03:01:16;;;;;;;3.70;1.75;;;13.30;99.90;;;;;;5012801;28;20522;-78
2022/08/10 03:04:11;;;;;;;2.90;0.75;;;13.40;99.90;;;;;;5011832;28;20033;-79
2022/08/10 03:06:42;;;;;;;4.60;0.70;;;13.50;99.90;;;;;;5003129;28;20569;-80
2022/08/10 03:09:14;;;;;;;1.30;0.50;;;13.70;99.90;;;;;;5012593;28;20026;-79
2022/08/10 03:11:43;;;;;;;1.77;0.70;;;13.80;99.90;;;;;;5011547;28;20128;-77
2022/08/10 03:14:13;;;;;;;6.43;1.15;;;13.90;99.90;;;;;;5010805;28;20104;-80
2022/08/10 03:16:42;;;;;;;2.70;0.80;;;13.90;99.90;;;;;;5012608;28;20120;-79
2022/08/10 03:19:12;;;;;;;3.78;0.85;;;13.90;99.90;;;;;;5013004;28;20089;-79
2022/08/10 03:21:41;;;;;;;2.08;0.50;;;13.80;99.90;;;;;;5012689;28;20465;-79
2022/08/10 03:24:11;;;;;;;2.55;0.70;;;13.70;99.90;;;;;;5012700;28;20026;-79
2022/08/10 03:26:39;;;;;;;4.82;0.85;;;13.60;99.90;;;;;;5012716;28;20038;-78
2022/08/10 03:29:10;;;;;;;1.92;0.40;;;13.60;99.90;;;;;;4995356;28;20018;-78
2022/08/10 03:31:38;;;;;;;3.50;0.75;;;13.60;99.90;;;;;;5013123;28;20014;-77
2022/08/10 03:34:06;;;;;;;2.65;0.75;;;13.50;99.90;;;;;;5010584;28;20475;-78
2022/08/10 03:36:34;;;;;;;1.17;0.75;;;13.50;99.90;;;;;;5013113;28;20096;-78
2022/08/10 03:39:02;;;;;;;4.00;1.08;;;13.40;99.90;;;;;;5012950;28;20057;-78
2022/08/10 03:41:47;;;;;;;5.18;0.85;;;13.40;99.90;;;;;;5013048;28;20371;-79
2022/08/10 03:44:18;;;;;;;1.10;0.40;;;13.40;99.90;;;;;;5011736;28;20030;-79
2022/08/10 03:46:47;;;;;;;1.48;0.52;;;13.40;99.90;;;;;;5010643;28;20036;-79
2022/08/10 03:49:18;;;;;;;2.25;1.02;;;13.60;99.90;;;;;;5011526;28;20037;-77
2022/08/10 03:51:48;;;;;;;5.80;0.98;;;13.70;99.90;;;;;;5016406;28;20052;-78
2022/08/10 03:54:18;;;;;;;3.88;1.13;;;13.90;99.90;;;;;;5016587;28;20533;-77
2022/08/10 03:56:46;;;;;;;1.88;0.50;;;14.00;99.90;;;;;;5016077;28;20109;-78
2022/08/10 03:59:16;;;;;;;3.25;0.73;;;14.00;99.90;;;;;;5010942;28;20023;-79
2022/08/10 04:01:45;;;;;;;2.65;0.50;;;13.80;99.90;;;;;;5000091;28;20018;-79
2022/08/10 04:04:13;;;;;;;4.75;0.68;;;13.80;99.90;;;;;;5014735;28;20812;-77
2022/08/10 04:06:41;;;;;;;3.33;1.20;;;13.60;99.90;;;;;;5015677;28;20116;-79
2022/08/10 04:09:10;;;;;;;2.92;0.70;;;13.50;99.90;;;;;;4997362;28;20469;-76
2022/08/10 04:11:39;;;;;;;5.78;0.85;;;13.40;99.90;;;;;;5012326;28;20045;-77
2022/08/10 04:14:07;;;;;;;2.65;0.95;;;13.40;99.90;;;;;;5014951;28;20483;-78
2022/08/10 04:16:35;;;;;;;6.53;1.38;;;13.30;99.90;;;;;;4997872;28;20029;-78
2022/08/10 04:19:04;;;;;;;2.83;1.05;;;13.20;99.90;;;;;;5015604;28;20397;-78
2022/08/10 04:21:36;;;;;;;2.45;0.55;;;13.10;99.90;;;;;;5015676;28;20093;-78
2022/08/10 04:24:06;;;;;;;6.65;0.52;;;13.00;99.90;;;;;;5015695;28;20046;-77
2022/08/10 04:26:34;;;;;;;1.80;0.40;;;13.00;99.90;;;;;;5014491;28;20490;-77
2022/08/10 04:29:02;;;;;;;3.30;0.55;;;13.10;99.90;;;;;;5013794;28;20025;-78
2022/08/10 04:31:31;;;;;;;1.08;0.52;;;13.10;99.90;;;;;;5013568;28;20022;-79
2022/08/10 04:34:01;;;;;;;1.30;0.40;;;13.10;99.90;;;;;;5013636;28;20105;-79
2022/08/10 04:36:30;;;;;;;0.60;0.40;;;13.10;99.90;;;;;;5013684;28;20021;-79
2022/08/10 04:38:58;;;;;;;1.48;0.40;;;13.20;99.90;;;;;;5013652;28;20022;-78
2022/08/10 04:41:26;;;;;;;1.77;0.40;;;13.20;99.90;;;;;;5013560;28;20021;-78
2022/08/10 04:43:54;;;;;;;0.60;0.43;;;13.20;99.90;;;;;;5014041;28;20378;-79
2022/08/10 04:46:21;;;;;;;2.83;0.50;;;13.20;99.90;;;;;;5013732;28;20117;-78
2022/08/10 04:48:49;;;;;;;2.28;0.93;;;13.20;99.90;;;;;;5013679;28;20021;-79
2022/08/10 04:51:17;;;;;;;4.93;0.80;;;13.30;99.90;;;;;;5013711;28;20022;-78
2022/08/10 04:53:50;;;;;;;2.83;0.50;;;13.30;99.90;;;;;;5013266;28;20034;-79
2022/08/10 04:56:17;;;;;;;1.75;0.88;;;13.30;99.90;;;;;;5005321;28;20030;-79
2022/08/10 04:58:44;;;;;;;2.08;0.55;;;13.30;99.90;;;;;;5015157;28;20034;-79
2022/08/10 05:01:12;;;;;;;2.70;0.70;;;13.30;99.90;;;;;;5015808;28;20508;-78
2022/08/10 05:03:39;;;;;;;1.25;0.63;;;13.40;99.90;;;;;;5016398;28;20080;-80
2022/08/10 05:06:07;;;;;;;4.75;0.70;;;13.50;99.90;;;;;;5016051;28;20034;-79
2022/08/10 05:08:34;;;;;;;2.30;0.63;;;13.50;99.90;;;;;;5016362;28;20057;-79
2022/08/10 05:11:01;;;;;;;6.05;0.40;;;13.60;99.90;;;;;;5015606;28;20045;-79
2022/08/10 05:13:29;;;;;;;1.63;0.47;;;13.60;99.90;;;;;;5011230;28;20050;-79
2022/08/10 05:15:56;;;;;;;0.80;0.50;;;13.60;99.90;;;;;;5015286;28;20049;-80
2022/08/10 05:18:24;;;;;;;2.13;0.55;;;13.50;99.90;;;;;;5015499;28;20025;-80
2022/08/10 05:20:51;;;;;;;2.80;0.50;;;13.40;99.90;;;;;;4997125;28;20030;-78
2022/08/10 05:23:18;;;;;;;1.50;0.60;;;13.40;99.90;;;;;;5015587;28;20387;-79
2022/08/10 05:25:45;;;;;;;4.40;0.68;;;13.20;99.90;;;;;;5015372;28;20482;-79
2022/08/10 05:28:13;;;;;;;1.92;0.70;;;13.10;99.90;;;;;;5015028;28;20022;-80
2022/08/10 05:30:40;;;;;;;2.47;1.05;;;13.10;99.90;;;;;;5015004;28;20030;-77
2022/08/10 05:33:07;;;;;;;2.72;1.00;;;13.00;99.90;;;;;;5014277;28;20014;-79
2022/08/10 05:35:37;;;;;;;1.77;0.70;;;13.00;99.90;;;;;;5014812;28;20030;-79
2022/08/10 05:38:05;;;;;;;3.70;1.08;;;13.00;99.90;;;;;;5015205;28;20390;-78
2022/08/10 05:40:33;;;;;;;2.67;0.68;;;13.00;99.90;;;;;;5014868;28;20028;-79
2022/08/10 05:43:00;;;;;;;1.50;0.47;;;13.10;99.90;;;;;;5015343;28;20038;-79
2022/08/10 05:45:28;;;;;;;3.78;0.70;;;13.00;99.90;;;;;;4996852;28;20375;-80
2022/08/10 05:47:55;;;;;;;2.55;0.40;;;13.00;99.90;;;;;;5014815;28;20017;-79
2022/08/10 05:50:26;;;;;;;1.58;1.13;;;13.00;99.90;;;;;;5014319;28;20026;-79
2022/08/10 05:52:54;;;;;;;6.38;0.60;;;13.00;99.90;;;;;;5014125;28;20018;-77
2022/08/10 05:55:23;;;;;;;1.27;0.30;;;13.00;99.90;;;;;;5014374;28;20030;-79
2022/08/10 05:57:52;;;;;;;1.15;0.30;;;13.00;99.90;;;;;;5013510;28;20025;-79
2022/08/10 06:00:23;;;;;;;0.60;0.40;;;13.00;99.90;;;;;;5013780;28;20037;-78
2022/08/10 06:02:55;;;;;;;2.97;0.63;;;13.00;99.90;;;;;;5014249;28;20481;-79
2022/08/10 06:05:34;;;;;;;0.98;0.30;;;12.90;99.90;;;;;;5014621;28;20037;-77
2022/08/10 06:08:06;;;;;;;4.10;0.68;;;12.80;99.90;;;;;;5014947;28;20030;-78
2022/08/10 06:10:39;;;;;;;1.15;0.30;;;12.70;99.90;;;;;;5014613;28;20048;-79
2022/08/10 06:15:57;;;;;;;1.55;0.40;;;12.60;99.90;;;;;;5014675;28;20434;-78
2022/08/10 06:18:25;;;;;;;2.20;0.30;;;12.60;99.90;;;;;;5014818;28;20021;-80
2022/08/10 06:20:54;;;;;;;0.82;0.30;;;12.50;99.90;;;;;;5013994;28;20095;-83
2022/08/10 06:23:29;;;;;;;0.60;0.35;;;12.50;99.90;;;;;;5011754;28;20021;-82
2022/08/10 06:26:00;;;;;;;1.15;0.60;;;12.50;99.90;;;;;;5013717;28;20045;-80
2022/08/10 06:28:31;;;;;;;0.57;0.30;;;12.50;99.90;;;;;;4996839;28;20029;-80
2022/08/10 06:31:02;;;;;;;0.65;0.32;;;12.50;99.90;;;;;;5013309;28;20022;-79
2022/08/10 06:33:32;;;;;;;0.70;0.40;;;12.50;99.90;;;;;;5014417;28;20379;-80
2022/08/10 06:36:01;;;;;;;0.63;0.25;;;12.40;99.90;;;;;;4996769;28;20038;-79
2022/08/10 06:38:32;;;;;;;0.85;0.73;;;12.50;99.90;;;;;;5014210;28;20022;-79
2022/08/10 06:41:04;;;;;;;3.25;0.32;;;12.50;99.90;;;;;;5013617;28;20025;-77
2022/08/10 06:43:33;;;;;;;0.70;0.40;;;12.50;99.90;;;;;;5014295;28;20399;-76
2022/08/10 06:46:06;;;;;;;2.08;0.50;;;12.50;99.90;;;;;;5013582;28;20107;-79
2022/08/10 06:48:37;;;;;;;1.25;0.45;;;12.50;99.90;;;;;;5014051;28;20022;-77
2022/08/10 06:51:16;;;;;;;0.85;0.30;;;12.50;99.90;;;;;;5012814;28;20025;-80
2022/08/10 06:53:49;;;;;;;1.90;0.47;;;12.50;99.90;;;;;;5011988;28;20022;-79
2022/08/10 06:56:20;;;;;;;3.28;0.82;;;12.50;99.90;;;;;;5009388;28;20106;-78
2022/08/10 06:59:06;;;;;;;1.52;0.70;;;12.40;99.90;;;;;;5013579;28;20029;-78
2022/08/10 07:01:35;;;;;;;1.02;0.40;;;12.40;99.90;;;;;;5010613;28;20026;-79
2022/08/10 07:04:08;;;;;;;1.48;0.40;;;12.30;99.90;;;;;;5013660;28;20058;-78
2022/08/10 07:06:40;;;;;;;3.05;0.73;;;12.30;99.90;;;;;;5013957;28;20029;-78
2022/08/10 07:09:14;;;;;;;1.30;0.50;;;12.20;99.90;;;;;;5013739;28;20490;-77
2022/08/10 07:11:44;;;;;;;1.40;0.70;;;12.10;99.90;;;;;;5013017;28;20041;-78
2022/08/10 07:14:15;;;;;;;2.47;0.90;;;12.10;99.90;;;;;;5013722;28;20426;-78
2022/08/10 07:16:45;;;;;;;1.02;0.50;;;12.00;99.90;;;;;;5013937;28;20025;-76
2022/08/10 07:19:16;;;;;;;2.58;0.70;;;12.00;99.90;;;;;;5013437;28;20143;-78
2022/08/10 07:21:45;;;;;;;2.45;0.77;;;11.90;99.90;;;;;;5012893;28;20471;-77
2022/08/10 07:24:14;;;;;;;4.43;1.27;;;11.90;99.90;;;;;;5012652;28;20030;-78
2022/08/10 07:26:48;;;;;;;1.55;0.65;;;11.80;99.90;;;;;;5013331;28;20129;-77
2022/08/10 07:29:18;;;;;;;1.95;0.77;;;11.80;99.90;;;;;;5013478;28;20105;-77
2022/08/10 07:31:50;;;;;;;1.65;0.85;;;11.80;99.90;;;;;;5012457;28;20475;-78
2022/08/10 07:34:21;;;;;;;1.58;0.65;;;11.70;99.90;;;;;;5013337;28;20021;-78
2022/08/10 07:36:51;;;;;;;3.13;1.08;;;11.70;99.90;;;;;;5013427;28;20052;-78
2022/08/10 07:39:32;;;;;;;2.60;1.05;;;11.60;99.90;;;;;;5013008;28;20101;-80
2022/08/10 07:42:04;;;;;;;1.88;0.73;;;11.60;99.90;;;;;;5013164;28;20075;-78
2022/08/10 07:44:34;;;;;;;1.85;0.75;;;11.50;99.90;;;;;;4995721;28;20501;-78
2022/08/10 07:47:07;;;;;;;3.85;1.00;;;11.50;99.90;;;;;;5013030;28;20032;-77
2022/08/10 07:49:38;;;;;;;3.45;0.85;;;11.40;99.90;;;;;;5000213;28;20133;-78
2022/08/10 07:52:10;;;;;;;3.55;0.88;;;11.40;99.90;;;;;;4996550;28;20022;-80
2022/08/10 07:54:41;;;;;;;3.70;0.98;;;11.30;99.90;;;;;;5001321;28;20023;-79
2022/08/10 07:57:17;;;;;;;3.45;1.23;;;11.20;99.90;;;;;;4998688;28;20118;-79
2022/08/10 07:59:50;;;;;;;5.90;1.55;;;11.30;99.90;;;;;;4999101;28;20022;-79
2022/08/10 08:02:33;;;;;;;6.93;2.25;;;11.20;99.90;;;;;;5009258;28;20495;-80
2022/08/10 08:05:24;;;;;;;3.20;1.85;;;11.20;99.90;;;;;;4993925;28;20036;-78
2022/08/10 08:07:53;;;;;;;3.05;1.20;;;11.20;99.90;;;;;;4993880;28;20061;-78
2022/08/10 08:10:24;;;;;;;4.50;1.25;;;11.10;99.90;;;;;;4992578;28;20356;-78
2022/08/10 08:12:53;;;;;;;3.65;1.50;;;11.10;99.90;;;;;;4996448;28;20046;-79
2022/08/10 08:15:22;;;;;;;4.22;1.63;;;11.10;99.90;;;;;;4990525;28;20113;-78
2022/08/10 08:17:51;;;;;;;4.38;1.50;;;11.20;99.90;;;;;;4995177;28;20041;-78
2022/08/10 08:20:20;;;;;;;8.38;1.52;;;11.20;99.90;;;;;;4996269;28;20015;-78
2022/08/10 08:22:49;;;;;;;2.97;1.17;;;11.10;99.90;;;;;;4993465;28;20041;-78
2022/08/10 08:25:19;;;;;;;3.33;1.30;;;11.10;99.90;;;;;;4984977;28;20037;-78
2022/08/10 08:27:51;;;;;;;4.25;1.00;;;11.00;99.90;;;;;;4995645;28;20491;-78
2022/08/10 08:30:20;;;;;;;4.40;1.13;;;11.00;99.90;;;;;;4996785;28;20120;-78
2022/08/10 08:33:00;;;;;;;3.13;1.13;;;11.00;99.90;;;;;;4997377;28;20072;-78
2022/08/10 08:35:29;;;;;;;1.83;1.05;;;11.10;99.90;;;;;;4998333;28;20023;-78
2022/08/10 08:37:59;;;;;;;3.90;1.20;;;11.10;99.90;;;;;;4999916;28;20417;-80
2022/08/10 08:40:35;;;;;;;6.95;1.60;;;11.10;99.90;;;;;;5004428;28;20022;-79
2022/08/10 08:43:18;;;;;;;4.05;1.00;;;11.10;99.90;;;;;;4997042;28;20554;-79
2022/08/10 08:46:27;;;;;;;5.20;1.38;;;11.10;99.90;;;;;;4981067;28;20066;-79
2022/08/10 08:49:07;;;;;;;5.68;1.65;;;11.10;99.90;;;;;;5006216;28;20455;-79
2022/08/10 08:52:19;;;;;;;2.83;1.55;;;11.00;99.90;;;;;;5014980;28;20430;-79
2022/08/10 08:55:04;;;;;;;6.47;1.73;;;11.10;99.90;;;;;;4996419;28;20018;-79
2022/08/10 08:58:00;;;;;;;3.80;1.35;;;11.00;99.90;;;;;;4995677;28;20113;-79
2022/08/10 09:00:43;;;;;;;4.28;1.73;;;11.00;99.90;;;;;;5001514;28;20131;-80
2022/08/10 09:03:16;;;;;;;5.53;1.30;;;11.10;99.90;;;;;;4995779;28;20364;-80
2022/08/10 09:06:17;;;;;;;2.15;1.05;;;11.10;99.90;;;;;;5012786;28;20034;-80
2022/08/10 09:09:08;;;;;;;2.38;1.23;;;11.10;99.90;;;;;;5013137;28;20029;-80
2022/08/10 09:11:45;;;;;;;3.30;1.02;;;11.00;99.90;;;;;;5001215;28;20426;-80
2022/08/10 09:14:47;;;;;;;4.47;1.42;;;11.10;99.90;;;;;;5001012;28;20129;-80
2022/08/10 09:17:32;;;;;;;2.28;0.90;;;11.10;99.90;;;;;;4996412;28;20483;-80
2022/08/10 09:20:08;;;;;;;2.90;1.08;;;11.10;99.90;;;;;;4995221;28;20419;-79
2022/08/10 09:22:38;;;;;;;3.05;1.20;;;11.10;99.90;;;;;;4996145;28;20026;-80
2022/08/10 09:25:06;;;;;;;6.20;1.00;;;11.00;99.90;;;;;;4995003;28;20022;-82
2022/08/10 09:27:40;;;;;;;1.80;0.88;;;11.00;99.90;;;;;;4994250;28;20023;-80
2022/08/10 09:30:09;;;;;;;1.80;1.00;;;11.00;99.90;;;;;;4997097;28;20022;-80
2022/08/10 09:32:52;;;;;;;3.85;1.55;;;11.10;99.90;;;;;;4997009;28;20034;-81
2022/08/10 09:35:41;;;;;;;5.13;1.10;;;11.00;99.90;;;;;;4999291;28;20483;-77
2022/08/10 09:38:24;;;;;;;2.42;1.10;;;11.00;99.90;;;;;;4995981;28;20478;-81
2022/08/10 09:41:09;;;;;;;1.90;1.15;;;10.90;99.90;;;;;;4998497;28;20030;-81
2022/08/10 09:44:03;;;;;;;8.27;1.42;;;10.90;99.90;;;;;;4979309;28;20038;-81
2022/08/10 09:47:08;;;;;;;3.03;1.42;;;10.90;99.90;;;;;;4998360;28;20055;-81
2022/08/10 09:49:56;;;;;;;2.45;1.45;;;10.80;99.90;;;;;;4974541;28;20034;-80
2022/08/10 09:52:57;;;;;;;3.10;1.55;;;10.80;99.90;;;;;;4998550;28;20022;-81
2022/08/10 09:55:37;;;;;;;3.83;1.80;;;10.80;99.90;;;;;;4997341;28;20045;-81
2022/08/10 09:58:47;;;;;;;4.55;1.73;;;10.70;99.90;;;;;;4995144;28;20018;-80
2022/08/10 10:01:38;;;;;;;5.57;1.63;;;10.70;99.90;;;;;;4996007;28;20117;-81
2022/08/10 10:04:23;;;;;;;3.03;1.58;;;10.70;99.90;;;;;;4984024;28;20050;-80
2022/08/10 10:07:02;;;;;;;2.50;1.35;;;10.70;99.90;;;;;;4993897;28;20034;-81
2022/08/10 10:09:39;;;;;;;3.13;1.10;;;10.60;99.90;;;;;;4997167;28;20383;-80
2022/08/10 10:12:21;;;;;;;4.25;1.67;;;10.60;99.90;;;;;;4979272;28;20046;-81
2022/08/10 10:15:29;;;;;;;7.82;1.63;;;10.60;99.90;;;;;;4997740;28;20043;-80
2022/08/10 10:18:16;;;;;;;1.63;1.30;;;10.50;99.90;;;;;;4996968;28;20047;-81
2022/08/10 10:21:07;;;;;;;5.78;1.70;;;10.50;99.90;;;;;;5000058;28;20376;-81
2022/08/10 10:23:53;;;;;;;4.43;1.63;;;10.50;99.90;;;;;;4999540;28;20052;-81
2022/08/10 10:26:58;;;;;;;1.77;1.20;;;10.50;99.90;;;;;;4998081;28;20045;-81
2022/08/10 10:29:37;;;;;;;2.58;1.40;;;10.40;99.90;;;;;;4997709;28;20034;-81
2022/08/10 10:32:11;;;;;;;3.28;1.63;;;10.40;99.90;;;;;;4997701;28;20036;-81
2022/08/10 10:34:49;;;;;;;4.25;1.10;;;10.40;99.90;;;;;;4995361;28;20040;-81
2022/08/10 10:37:21;;;;;;;2.63;1.85;;;10.30;99.90;;;;;;4995052;28;20061;-81
2022/08/10 10:40:02;;;;;;;8.50;3.28;;;10.30;99.90;;;;;;4975867;28;20077;-81
2022/08/10 10:43:01;;;;;;;4.75;2.65;;;10.20;99.90;;;;;;4994063;28;20022;-81
2022/08/10 10:46:01;;;;;;;1.95;1.67;;;10.20;99.90;;;;;;4996725;28;20038;-81
2022/08/10 10:48:42;;;;;;;1.77;1.10;;;10.10;99.90;;;;;;4994911;28;20019;-81
2022/08/10 10:51:33;;;;;;;4.05;1.27;;;10.20;99.90;;;;;;4994396;28;20014;-81
2022/08/10 10:54:21;;;;;;;5.28;1.55;;;10.10;99.90;;;;;;4976826;28;20018;-81
2022/08/10 10:56:54;;;;;;;5.45;1.83;;;10.10;99.90;;;;;;4992772;28;20014;-81
2022/08/10 10:59:58;;;;;;;6.15;1.65;;;10.10;99.90;;;;;;4994710;28;20113;-81
2022/08/10 11:02:43;;;;;;;2.08;1.33;;;10.10;99.90;;;;;;5010259;28;20061;-82
2022/08/10 11:05:29;;;;;;;4.45;1.00;;;10.10;99.90;;;;;;5012304;28;20061;-82
2022/08/10 11:08:01;;;;;;;6.53;1.67;;;10.00;99.90;;;;;;4987933;28;20026;-81
2022/08/10 11:10:41;;;;;;;3.65;1.38;;;10.10;99.90;;;;;;5008150;28;20051;-81
2022/08/10 11:13:33;;;;;;;2.15;1.48;;;10.00;99.90;;;;;;4990922;28;20054;-81
2022/08/10 11:16:06;;;;;;;7.45;1.58;;;10.00;99.90;;;;;;5011718;28;20049;-81
2022/08/10 11:18:55;;;;;;;3.05;1.58;;;10.10;99.90;;;;;;5010477;28;20040;-81
2022/08/10 11:22:00;;;;;;;7.30;1.65;;;10.10;99.90;;;;;;4997258;28;20027;-81
2022/08/10 11:24:57;;;;;;;3.78;1.50;;;10.00;99.90;;;;;;4995153;28;20035;-81
2022/08/10 11:27:47;;;;;;;5.88;1.73;;;10.00;99.90;;;;;;4996122;28;20037;-80
2022/08/10 11:30:41;;;;;;;4.07;1.88;;;10.00;99.90;;;;;;4975765;28;20030;-80
2022/08/10 11:33:47;;;;;;;4.38;1.67;;;10.00;99.90;;;;;;4990781;28;20039;-80
2022/08/10 11:36:31;;;;;;;4.57;1.95;;;10.00;99.90;;;;;;5010002;28;20065;-80
2022/08/10 11:39:12;;;;;;;5.22;2.08;;;10.00;99.90;;;;;;5010565;28;20610;-80
2022/08/10 11:41:45;;;;;;;2.55;1.80;;;10.00;99.90;;;;;;4992902;28;20374;-80
2022/08/10 11:44:29;;;;;;;10.10;2.10;;;9.90;99.90;;;;;;5003593;28;20026;-80
2022/08/10 11:47:10;;;;;;;6.97;2.20;;;10.00;99.90;;;;;;5011384;28;20557;-80
2022/08/10 11:49:43;;;;;;;6.63;2.30;;;10.00;99.90;;;;;;5011375;28;20088;-80
2022/08/10 11:52:16;;;;;;;5.55;2.22;;;10.00;99.90;;;;;;5010444;28;20033;-80
2022/08/10 11:54:56;;;;;;;2.78;1.48;;;9.90;99.90;;;;;;4996121;28;20100;-80
2022/08/10 11:57:30;;;;;;;4.80;1.75;;;9.90;99.90;;;;;;4993879;28;20023;-80
2022/08/10 11:59:57;;;;;;;9.18;2.90;;;9.90;99.90;;;;;;4993821;28;20042;-80
2022/08/10 12:02:35;;;;;;;8.65;2.00;;;9.90;99.90;;;;;;4992933;28;20080;-80
2022/08/10 12:05:11;;;;;;;6.00;2.40;;;9.90;99.90;;;;;;4992533;28;20018;-80
2022/08/10 12:07:53;;;;;;;8.55;2.38;;;9.90;99.90;;;;;;4994455;28;20025;-80
2022/08/10 12:10:23;;;;;;;5.72;1.48;;;9.90;99.90;;;;;;4994188;28;20027;-80
2022/08/10 12:13:00;;;;;;;5.50;1.30;;;9.80;99.90;;;;;;4997278;28;20551;-80
2022/08/10 12:15:54;;;;;;;4.22;1.65;;;9.80;99.90;;;;;;4999038;28;20026;-80
2022/08/10 12:18:33;;;;;;;4.78;1.73;;;9.80;99.90;;;;;;5014228;28;20069;-79
2022/08/10 12:21:14;;;;;;;2.25;1.20;;;9.80;99.90;;;;;;5014144;28;20478;-80
2022/08/10 12:24:04;;;;;;;6.03;1.38;;;9.80;99.90;;;;;;5015236;28;20024;-79
2022/08/10 12:27:15;;;;;;;8.93;2.28;;;9.80;99.90;;;;;;5014336;28;20045;-78
2022/08/10 12:29:43;;;;;;;5.07;2.47;;;9.80;99.90;;;;;;5006230;28;20038;-79
2022/08/10 12:32:45;;;;;;;8.00;2.10;;;9.70;99.90;;;;;;5013561;28;20478;-78
2022/08/10 12:35:47;;;;;;;12.88;3.53;;;9.70;99.90;;;;;;4969201;28;20030;-79
2022/08/10 12:38:45;;;;;;;6.38;3.35;;;9.60;99.90;;;;;;4957074;28;20029;-79
2022/08/10 12:41:31;;;;;;;6.82;3.40;;;9.50;99.90;;;;;;5013747;28;20021;-79
2022/08/10 12:44:11;;;;;;;4.75;3.35;;;9.40;99.90;;;;;;5014478;28;20387;-79
2022/08/10 12:47:02;;;;;;;10.15;4.40;;;9.40;99.90;;;;;;5014422;28;20037;-79
2022/08/10 12:49:40;;;;;;;6.18;3.95;;;9.30;99.90;;;;;;5012238;28;20046;-80
2022/08/10 12:52:28;;;;;;;5.75;4.00;;;9.30;99.90;;;;;;5015106;28;20096;-79
2022/08/10 12:54:59;;;;;;;7.32;3.00;;;9.20;99.90;;;;;;5013217;28;20394;-81
2022/08/10 12:57:28;;;;;;;2.50;2.10;;;9.20;99.90;;;;;;5009286;28;20029;-78
2022/08/10 13:00:00;;;;;;;6.00;2.97;;;9.10;99.90;;;;;;4996101;28;20017;-79
2022/08/10 13:02:41;;;;;;;5.32;2.70;;;9.10;99.90;;;;;;5014317;28;20021;-80
2022/08/10 13:05:12;;;;;;;3.42;2.67;;;9.10;99.90;;;;;;5014281;28;20049;-80
2022/08/10 13:07:44;;;;;;;6.85;2.83;;;9.10;99.90;;;;;;5013742;28;20077;-80
2022/08/10 13:10:17;;;;;;;3.63;2.17;;;9.10;99.90;;;;;;5011393;28;20034;-79
2022/08/10 13:12:48;;;;;;;3.40;2.83;;;9.00;99.90;;;;;;5013369;28;20141;-80
2022/08/10 13:15:35;;;;;;;3.05;1.85;;;9.00;99.90;;;;;;5013095;28;20113;-81
2022/08/10 13:18:04;;;;;;;5.45;2.22;;;9.00;99.90;;;;;;5014847;28;20108;-80
2022/08/10 13:20:39;;;;;;;4.63;2.00;;;9.00;99.90;;;;;;5012870;28;20097;-79
2022/08/10 13:23:13;;;;;;;13.95;7.07;;;9.00;99.90;;;;;;5015279;28;20478;-79
2022/08/10 13:25:44;;;;;;;11.10;4.00;;;9.00;99.90;;;;;;5015136;28;20042;-79
2022/08/10 13:28:20;;;;;;;6.50;3.67;;;9.00;99.90;;;;;;5012643;28;20041;-79
2022/08/10 13:30:49;;;;;;;2.72;1.55;;;9.00;99.90;;;;;;5014451;28;20036;-79
2022/08/10 13:33:24;;;;;;;5.32;3.40;;;9.00;99.90;;;;;;5015153;28;20025;-79
2022/08/10 13:35:56;;;;;;;15.82;6.65;;;9.00;99.90;;;;;;5012668;28;20099;-79
2022/08/10 13:38:24;;;;;;;14.73;7.45;;;9.00;99.90;;;;;;5014183;28;20053;-79
2022/08/10 13:40:53;;;;;;;4.47;2.70;;;9.00;99.90;;;;;;5012142;28;20022;-79